sensor_id;sensor_type;location;lat;lon;timestamp;temperature;humidity
9658;DHT22;4867;48.112;11.622;2022-07-12T00:02:03;18.00;99.90
9658;DHT22;4867;48.112;11.622;2022-07-12T00:04:30;18.00;99.90
9658;DHT22;4867;48.112;11.622;2022-07-12T00:06:57;17.90;99.90
9658;DHT22;4867;48.112;11.622;2022-07-12T00:09:24;17.80;99.90
9658;DHT22;4867;48.112;11.622;2022-07-12T00:11:51;17.80;99.90
9658;DHT22;4867;48.112;11.622;2022-07-12T00:14:18;17.70;99.90
9658;DHT22;4867;48.112;11.622;2022-07-12T00:16:45;17.70;99.90
9658;DHT22;4867;48.112;11.622;2022-07-12T00:19:12;17.70;99.90
9658;DHT22;4867;48.112;11.622;2022-07-12T00:21:39;17.60;99.90
9658;DHT22;4867;48.112;11.622;2022-07-12T00:24:06;17.60;99.90
9658;DHT22;4867;48.112;11.622;2022-07-12T00:26:33;17.50;99.90
9658;DHT22;4867;48.112;11.622;2022-07-12T00:29:00;17.50;99.90
9658;DHT22;4867;48.112;11.622;2022-07-12T00:31:27;17.50;99.90
9658;DHT22;4867;48.112;11.622;2022-07-12T00:33:54;17.40;99.90
9658;DHT22;4867;48.112;11.622;2022-07-12T00:36:21;17.30;99.90
9658;DHT22;4867;48.112;11.622;2022-07-12T00:38:48;17.30;99.90
9658;DHT22;4867;48.112;11.622;2022-07-12T00:41:15;17.30;99.90
9658;DHT22;4867;48.112;11.622;2022-07-12T00:43:42;17.20;99.90
9658;DHT22;4867;48.112;11.622;2022-07-12T00:46:09;17.20;99.90
9658;DHT22;4867;48.112;11.622;2022-07-12T00:48:37;17.20;99.90
9658;DHT22;4867;48.112;11.622;2022-07-12T00:51:04;17.20;99.90
9658;DHT22;4867;48.112;11.622;2022-07-12T00:53:31;17.20;99.90
9658;DHT22;4867;48.112;11.622;2022-07-12T00:55:58;17.20;99.90
9658;DHT22;4867;48.112;11.622;2022-07-12T00:58:27;17.10;99.90
9658;DHT22;4867;48.112;11.622;2022-07-12T01:00:58;17.20;99.90
9658;DHT22;4867;48.112;11.622;2022-07-12T01:03:26;17.20;99.90
9658;DHT22;4867;48.112;11.622;2022-07-12T01:05:54;17.10;99.90
9658;DHT22;4867;48.112;11.622;2022-07-12T01:08:23;17.10;99.90
9658;DHT22;4867;48.112;11.622;2022-07-12T01:10:51;17.10;99.90
9658;DHT22;4867;48.112;11.622;2022-07-12T01:13:18;17.10;99.90
9658;DHT22;4867;48.112;11.622;2022-07-12T01:15:46;17.10;99.90
9658;DHT22;4867;48.112;11.622;2022-07-12T01:18:15;17.00;99.90
9658;DHT22;4867;48.112;11.622;2022-07-12T01:20:43;16.90;99.90
9658;DHT22;4867;48.112;11.622;2022-07-12T01:23:12;16.90;99.90
9658;DHT22;4867;48.112;11.622;2022-07-12T01:25:39;16.80;99.90
9658;DHT22;4867;48.112;11.622;2022-07-12T01:28:06;16.70;99.90
9658;DHT22;4867;48.112;11.622;2022-07-12T01:30:33;16.70;99.90
9658;DHT22;4867;48.112;11.622;2022-07-12T01:33:00;16.60;99.90
9658;DHT22;4867;48.112;11.622;2022-07-12T01:35:28;16.60;99.90
9658;DHT22;4867;48.112;11.622;2022-07-12T01:37:59;16.50;99.90
9658;DHT22;4867;48.112;11.622;2022-07-12T01:40:26;16.50;99.90
9658;DHT22;4867;48.112;11.622;2022-07-12T01:42:53;16.60;99.90
9658;DHT22;4867;48.112;11.622;2022-07-12T01:45:22;16.50;99.90
9658;DHT22;4867;48.112;11.622;2022-07-12T01:47:49;16.60;99.90
9658;DHT22;4867;48.112;11.622;2022-07-12T01:50:15;16.60;99.90
9658;DHT22;4867;48.112;11.622;2022-07-12T01:52:43;16.60;99.90
9658;DHT22;4867;48.112;11.622;2022-07-12T01:55:11;16.50;99.90
9658;DHT22;4867;48.112;11.622;2022-07-12T01:57:41;16.50;99.90
9658;DHT22;4867;48.112;11.622;2022-07-12T02:00:10;16.40;99.90
9658;DHT22;4867;48.112;11.622;2022-07-12T02:02:37;16.30;99.90
9658;DHT22;4867;48.112;11.622;2022-07-12T02:05:05;16.30;99.90
9658;DHT22;4867;48.112;11.622;2022-07-12T02:07:32;16.20;99.90
9658;DHT22;4867;48.112;11.622;2022-07-12T02:10:04;16.10;99.90
9658;DHT22;4867;48.112;11.622;2022-07-12T02:12:32;16.00;99.90
9658;DHT22;4867;48.112;11.622;2022-07-12T02:14:59;15.80;99.90
9658;DHT22;4867;48.112;11.622;2022-07-12T02:17:26;15.90;99.90
9658;DHT22;4867;48.112;11.622;2022-07-12T02:19:53;16.00;99.90
9658;DHT22;4867;48.112;11.622;2022-07-12T02:22:20;15.80;99.90
9658;DHT22;4867;48.112;11.622;2022-07-12T02:24:47;15.80;99.90
9658;DHT22;4867;48.112;11.622;2022-07-12T02:27:14;15.80;99.90
9658;DHT22;4867;48.112;11.622;2022-07-12T02:29:41;15.70;99.90
9658;DHT22;4867;48.112;11.622;2022-07-12T02:32:09;15.80;99.90
9658;DHT22;4867;48.112;11.622;2022-07-12T02:34:36;15.70;99.90
9658;DHT22;4867;48.112;11.622;2022-07-12T02:37:03;15.70;99.90
9658;DHT22;4867;48.112;11.622;2022-07-12T02:39:30;15.60;99.90
9658;DHT22;4867;48.112;11.622;2022-07-12T02:41:57;15.60;99.90
9658;DHT22;4867;48.112;11.622;2022-07-12T02:44:24;15.60;99.90
9658;DHT22;4867;48.112;11.622;2022-07-12T02:46:51;15.50;99.90
9658;DHT22;4867;48.112;11.622;2022-07-12T02:49:18;15.50;99.90
9658;DHT22;4867;48.112;11.622;2022-07-12T02:51:45;15.30;99.90
9658;DHT22;4867;48.112;11.622;2022-07-12T02:54:12;15.40;99.90
9658;DHT22;4867;48.112;11.622;2022-07-12T02:56:39;15.30;99.90
9658;DHT22;4867;48.112;11.622;2022-07-12T02:59:06;15.30;99.90
9658;DHT22;4867;48.112;11.622;2022-07-12T03:01:32;15.10;99.90
9658;DHT22;4867;48.112;11.622;2022-07-12T03:03:59;15.20;99.90
9658;DHT22;4867;48.112;11.622;2022-07-12T03:06:26;15.20;99.90
9658;DHT22;4867;48.112;11.622;2022-07-12T03:08:53;15.20;99.90
9658;DHT22;4867;48.112;11.622;2022-07-12T03:11:20;15.10;99.90
9658;DHT22;4867;48.112;11.622;2022-07-12T03:13:47;15.20;99.90
9658;DHT22;4867;48.112;11.622;2022-07-12T03:16:13;15.10;99.90
9658;DHT22;4867;48.112;11.622;2022-07-12T03:18:41;15.10;99.90
9658;DHT22;4867;48.112;11.622;2022-07-12T03:21:08;15.00;99.90
9658;DHT22;4867;48.112;11.622;2022-07-12T03:23:35;14.90;99.90
9658;DHT22;4867;48.112;11.622;2022-07-12T03:26:02;15.00;99.90
9658;DHT22;4867;48.112;11.622;2022-07-12T03:28:30;15.00;99.90
9658;DHT22;4867;48.112;11.622;2022-07-12T03:30:58;15.00;99.90
9658;DHT22;4867;48.112;11.622;2022-07-12T03:33:25;14.90;99.90
9658;DHT22;4867;48.112;11.622;2022-07-12T03:36:00;14.90;99.90
9658;DHT22;4867;48.112;11.622;2022-07-12T03:38:27;14.90;99.90
9658;DHT22;4867;48.112;11.622;2022-07-12T03:40:54;14.90;99.90
9658;DHT22;4867;48.112;11.622;2022-07-12T03:43:21;15.00;99.90
9658;DHT22;4867;48.112;11.622;2022-07-12T03:45:48;15.00;99.90
9658;DHT22;4867;48.112;11.622;2022-07-12T03:48:18;15.00;99.90
9658;DHT22;4867;48.112;11.622;2022-07-12T03:50:45;15.20;99.90
9658;DHT22;4867;48.112;11.622;2022-07-12T03:53:16;15.00;99.90
9658;DHT22;4867;48.112;11.622;2022-07-12T03:55:42;15.50;99.90
9658;DHT22;4867;48.112;11.622;2022-07-12T03:58:10;16.10;99.90
9658;DHT22;4867;48.112;11.622;2022-07-12T04:00:37;16.70;99.90
9658;DHT22;4867;48.112;11.622;2022-07-12T04:03:04;17.30;99.90
9658;DHT22;4867;48.112;11.622;2022-07-12T04:05:31;17.70;99.90
9658;DHT22;4867;48.112;11.622;2022-07-12T04:07:58;18.00;99.90
9658;DHT22;4867;48.112;11.622;2022-07-12T04:10:28;18.40;99.90
9658;DHT22;4867;48.112;11.622;2022-07-12T04:12:55;18.50;99.90
9658;DHT22;4867;48.112;11.622;2022-07-12T04:15:22;18.80;99.90
9658;DHT22;4867;48.112;11.622;2022-07-12T04:17:49;18.80;99.90
9658;DHT22;4867;48.112;11.622;2022-07-12T04:20:17;18.90;99.90
9658;DHT22;4867;48.112;11.622;2022-07-12T04:22:43;18.90;99.90
9658;DHT22;4867;48.112;11.622;2022-07-12T04:25:10;18.90;99.90
9658;DHT22;4867;48.112;11.622;2022-07-12T04:27:37;18.80;99.90
9658;DHT22;4867;48.112;11.622;2022-07-12T04:30:05;18.70;99.90
9658;DHT22;4867;48.112;11.622;2022-07-12T04:32:32;18.50;99.90
9658;DHT22;4867;48.112;11.622;2022-07-12T04:34:59;18.40;99.90
9658;DHT22;4867;48.112;11.622;2022-07-12T04:37:25;18.40;99.90
9658;DHT22;4867;48.112;11.622;2022-07-12T04:39:52;18.30;99.90
9658;DHT22;4867;48.112;11.622;2022-07-12T04:42:19;18.10;99.90
9658;DHT22;4867;48.112;11.622;2022-07-12T04:44:47;18.00;99.90
9658;DHT22;4867;48.112;11.622;2022-07-12T04:47:14;18.00;99.90
9658;DHT22;4867;48.112;11.622;2022-07-12T04:49:40;17.90;99.90
9658;DHT22;4867;48.112;11.622;2022-07-12T04:52:07;18.00;99.90
9658;DHT22;4867;48.112;11.622;2022-07-12T04:54:34;18.10;99.90
9658;DHT22;4867;48.112;11.622;2022-07-12T04:57:01;18.30;99.90
9658;DHT22;4867;48.112;11.622;2022-07-12T04:59:28;18.40;99.90
9658;DHT22;4867;48.112;11.622;2022-07-12T05:01:55;18.60;99.90
9658;DHT22;4867;48.112;11.622;2022-07-12T05:04:22;18.90;99.90
9658;DHT22;4867;48.112;11.622;2022-07-12T05:06:49;19.20;99.90
9658;DHT22;4867;48.112;11.622;2022-07-12T05:09:16;19.60;99.90
9658;DHT22;4867;48.112;11.622;2022-07-12T05:11:44;20.20;99.90
9658;DHT22;4867;48.112;11.622;2022-07-12T05:14:11;20.70;99.90
9658;DHT22;4867;48.112;11.622;2022-07-12T05:16:38;21.10;99.90
9658;DHT22;4867;48.112;11.622;2022-07-12T05:19:05;21.30;99.90
9658;DHT22;4867;48.112;11.622;2022-07-12T05:21:32;21.20;99.90
9658;DHT22;4867;48.112;11.622;2022-07-12T05:24:03;21.30;99.90
9658;DHT22;4867;48.112;11.622;2022-07-12T05:26:30;21.20;99.90
9658;DHT22;4867;48.112;11.622;2022-07-12T05:28:57;21.20;99.90
9658;DHT22;4867;48.112;11.622;2022-07-12T05:31:24;21.00;99.90
9658;DHT22;4867;48.112;11.622;2022-07-12T05:33:51;20.80;99.90
9658;DHT22;4867;48.112;11.622;2022-07-12T05:36:19;20.70;99.90
9658;DHT22;4867;48.112;11.622;2022-07-12T05:38:46;20.50;99.90
9658;DHT22;4867;48.112;11.622;2022-07-12T05:41:13;20.40;99.90
9658;DHT22;4867;48.112;11.622;2022-07-12T05:43:40;20.20;99.90
9658;DHT22;4867;48.112;11.622;2022-07-12T05:46:06;20.10;99.90
9658;DHT22;4867;48.112;11.622;2022-07-12T05:48:37;20.10;99.90
9658;DHT22;4867;48.112;11.622;2022-07-12T05:51:03;19.90;99.90
9658;DHT22;4867;48.112;11.622;2022-07-12T05:53:49;19.90;99.90
9658;DHT22;4867;48.112;11.622;2022-07-12T05:56:17;19.70;99.90
9658;DHT22;4867;48.112;11.622;2022-07-12T05:58:43;19.50;99.90
9658;DHT22;4867;48.112;11.622;2022-07-12T06:01:10;19.40;99.90
9658;DHT22;4867;48.112;11.622;2022-07-12T06:03:37;19.20;99.90
9658;DHT22;4867;48.112;11.622;2022-07-12T06:06:04;19.20;99.90
9658;DHT22;4867;48.112;11.622;2022-07-12T06:08:31;19.30;99.90
9658;DHT22;4867;48.112;11.622;2022-07-12T06:10:58;19.40;99.90
9658;DHT22;4867;48.112;11.622;2022-07-12T06:13:25;19.40;99.90
9658;DHT22;4867;48.112;11.622;2022-07-12T06:15:52;19.30;99.90
9658;DHT22;4867;48.112;11.622;2022-07-12T06:18:19;19.40;99.90
9658;DHT22;4867;48.112;11.622;2022-07-12T06:20:46;19.40;99.90
9658;DHT22;4867;48.112;11.622;2022-07-12T06:23:12;19.50;99.90
9658;DHT22;4867;48.112;11.622;2022-07-12T06:25:40;19.70;99.90
9658;DHT22;4867;48.112;11.622;2022-07-12T06:28:10;19.70;99.90
9658;DHT22;4867;48.112;11.622;2022-07-12T06:30:37;19.60;99.90
9658;DHT22;4867;48.112;11.622;2022-07-12T06:33:04;19.60;99.90
9658;DHT22;4867;48.112;11.622;2022-07-12T06:35:32;19.70;99.90
9658;DHT22;4867;48.112;11.622;2022-07-12T06:38:01;19.70;99.90
9658;DHT22;4867;48.112;11.622;2022-07-12T06:40:28;19.80;99.90
9658;DHT22;4867;48.112;11.622;2022-07-12T06:42:57;20.00;99.90
9658;DHT22;4867;48.112;11.622;2022-07-12T06:45:24;19.90;99.90
9658;DHT22;4867;48.112;11.622;2022-07-12T06:47:52;19.80;99.90
9658;DHT22;4867;48.112;11.622;2022-07-12T06:50:19;19.90;99.90
9658;DHT22;4867;48.112;11.622;2022-07-12T06:52:46;20.00;99.90
9658;DHT22;4867;48.112;11.622;2022-07-12T06:55:13;20.00;99.90
9658;DHT22;4867;48.112;11.622;2022-07-12T06:57:41;20.10;99.90
9658;DHT22;4867;48.112;11.622;2022-07-12T07:00:08;20.00;99.90
9658;DHT22;4867;48.112;11.622;2022-07-12T07:02:35;20.10;99.90
9658;DHT22;4867;48.112;11.622;2022-07-12T07:05:02;20.10;99.90
9658;DHT22;4867;48.112;11.622;2022-07-12T07:07:29;20.20;99.90
9658;DHT22;4867;48.112;11.622;2022-07-12T07:09:56;20.30;99.90
9658;DHT22;4867;48.112;11.622;2022-07-12T07:12:23;20.40;99.90
9658;DHT22;4867;48.112;11.622;2022-07-12T07:14:50;20.50;99.90
9658;DHT22;4867;48.112;11.622;2022-07-12T07:17:17;20.10;99.90
9658;DHT22;4867;48.112;11.622;2022-07-12T07:19:46;20.10;99.90
9658;DHT22;4867;48.112;11.622;2022-07-12T07:22:13;20.20;99.90
9658;DHT22;4867;48.112;11.622;2022-07-12T07:24:40;20.40;99.90
9658;DHT22;4867;48.112;11.622;2022-07-12T07:27:07;20.40;99.90
9658;DHT22;4867;48.112;11.622;2022-07-12T07:29:35;20.50;99.90
9658;DHT22;4867;48.112;11.622;2022-07-12T07:32:20;20.80;99.90
9658;DHT22;4867;48.112;11.622;2022-07-12T07:34:48;20.70;99.90
9658;DHT22;4867;48.112;11.622;2022-07-12T07:37:15;20.50;99.90
9658;DHT22;4867;48.112;11.622;2022-07-12T07:39:42;20.40;99.90
9658;DHT22;4867;48.112;11.622;2022-07-12T07:42:09;20.40;99.90
9658;DHT22;4867;48.112;11.622;2022-07-12T07:44:36;20.30;99.90
9658;DHT22;4867;48.112;11.622;2022-07-12T07:47:23;20.30;99.90
9658;DHT22;4867;48.112;11.622;2022-07-12T07:49:50;20.20;99.90
9658;DHT22;4867;48.112;11.622;2022-07-12T07:52:17;20.40;99.90
9658;DHT22;4867;48.112;11.622;2022-07-12T07:54:44;20.70;99.90
9658;DHT22;4867;48.112;11.622;2022-07-12T07:57:11;20.50;99.90
9658;DHT22;4867;48.112;11.622;2022-07-12T07:59:37;20.60;99.90
9658;DHT22;4867;48.112;11.622;2022-07-12T08:02:05;20.70;99.90
9658;DHT22;4867;48.112;11.622;2022-07-12T08:04:32;20.70;99.90
9658;DHT22;4867;48.112;11.622;2022-07-12T08:06:59;20.80;99.90
9658;DHT22;4867;48.112;11.622;2022-07-12T08:09:25;20.80;99.90
9658;DHT22;4867;48.112;11.622;2022-07-12T08:11:52;20.60;99.90
9658;DHT22;4867;48.112;11.622;2022-07-12T08:14:19;20.40;99.90
9658;DHT22;4867;48.112;11.622;2022-07-12T08:16:46;20.40;99.90
9658;DHT22;4867;48.112;11.622;2022-07-12T08:19:13;20.40;99.90
9658;DHT22;4867;48.112;11.622;2022-07-12T08:21:40;20.50;99.90
9658;DHT22;4867;48.112;11.622;2022-07-12T08:27:32;20.80;99.90
9658;DHT22;4867;48.112;11.622;2022-07-12T08:29:59;20.80;99.90
9658;DHT22;4867;48.112;11.622;2022-07-12T08:32:25;20.80;99.90
9658;DHT22;4867;48.112;11.622;2022-07-12T08:35:27;20.70;99.90
9658;DHT22;4867;48.112;11.622;2022-07-12T08:37:53;20.80;99.90
9658;DHT22;4867;48.112;11.622;2022-07-12T08:40:21;21.00;99.90
9658;DHT22;4867;48.112;11.622;2022-07-12T08:42:48;20.90;99.90
9658;DHT22;4867;48.112;11.622;2022-07-12T08:45:16;21.20;99.90
9658;DHT22;4867;48.112;11.622;2022-07-12T08:47:43;21.50;99.90
9658;DHT22;4867;48.112;11.622;2022-07-12T08:50:14;21.60;99.90
9658;DHT22;4867;48.112;11.622;2022-07-12T08:52:46;21.40;99.90
9658;DHT22;4867;48.112;11.622;2022-07-12T08:55:21;21.10;99.90
9658;DHT22;4867;48.112;11.622;2022-07-12T08:57:50;21.50;99.90
9658;DHT22;4867;48.112;11.622;2022-07-12T09:00:19;21.30;99.90
9658;DHT22;4867;48.112;11.622;2022-07-12T09:02:58;21.60;99.90
9658;DHT22;4867;48.112;11.622;2022-07-12T09:05:26;21.90;99.90
9658;DHT22;4867;48.112;11.622;2022-07-12T09:08:08;22.10;99.90
9658;DHT22;4867;48.112;11.622;2022-07-12T09:10:52;22.10;99.90
9658;DHT22;4867;48.112;11.622;2022-07-12T09:13:19;21.60;99.90
9658;DHT22;4867;48.112;11.622;2022-07-12T09:15:46;21.60;99.90
9658;DHT22;4867;48.112;11.622;2022-07-12T09:18:14;21.60;99.90
9658;DHT22;4867;48.112;11.622;2022-07-12T09:20:49;21.60;99.90
9658;DHT22;4867;48.112;11.622;2022-07-12T09:23:17;21.70;99.90
9658;DHT22;4867;48.112;11.622;2022-07-12T09:25:45;21.90;99.90
9658;DHT22;4867;48.112;11.622;2022-07-12T09:28:13;21.90;99.90
9658;DHT22;4867;48.112;11.622;2022-07-12T09:30:48;22.20;99.90
9658;DHT22;4867;48.112;11.622;2022-07-12T09:33:20;22.20;99.90
9658;DHT22;4867;48.112;11.622;2022-07-12T09:36:06;22.10;99.90
9658;DHT22;4867;48.112;11.622;2022-07-12T09:38:34;22.00;99.90
9658;DHT22;4867;48.112;11.622;2022-07-12T09:41:02;22.10;99.90
9658;DHT22;4867;48.112;11.622;2022-07-12T09:43:29;22.10;99.90
9658;DHT22;4867;48.112;11.622;2022-07-12T09:45:58;21.90;99.90
9658;DHT22;4867;48.112;11.622;2022-07-12T09:48:29;21.80;99.90
9658;DHT22;4867;48.112;11.622;2022-07-12T09:50:57;21.90;99.90
9658;DHT22;4867;48.112;11.622;2022-07-12T09:53:32;21.90;99.90
9658;DHT22;4867;48.112;11.622;2022-07-12T09:56:10;21.90;99.90
9658;DHT22;4867;48.112;11.622;2022-07-12T09:58:46;22.10;99.90
9658;DHT22;4867;48.112;11.622;2022-07-12T10:01:14;22.40;99.90
9658;DHT22;4867;48.112;11.622;2022-07-12T10:03:43;22.30;99.90
9658;DHT22;4867;48.112;11.622;2022-07-12T10:06:12;22.50;99.90
9658;DHT22;4867;48.112;11.622;2022-07-12T10:08:40;22.60;99.90
9658;DHT22;4867;48.112;11.622;2022-07-12T10:11:07;22.50;99.90
9658;DHT22;4867;48.112;11.622;2022-07-12T10:13:34;22.40;99.90
9658;DHT22;4867;48.112;11.622;2022-07-12T10:16:02;22.60;99.90
9658;DHT22;4867;48.112;11.622;2022-07-12T10:18:30;22.70;99.90
9658;DHT22;4867;48.112;11.622;2022-07-12T10:20:57;23.10;99.90
9658;DHT22;4867;48.112;11.622;2022-07-12T10:23:32;23.40;99.90
9658;DHT22;4867;48.112;11.622;2022-07-12T10:31:24;23.60;99.90
9658;DHT22;4867;48.112;11.622;2022-07-12T10:34:18;23.40;99.90
9658;DHT22;4867;48.112;11.622;2022-07-12T10:39:41;23.00;99.90
9658;DHT22;4867;48.112;11.622;2022-07-12T10:42:28;22.90;99.90
9658;DHT22;4867;48.112;11.622;2022-07-12T10:45:10;23.30;99.90
9658;DHT22;4867;48.112;11.622;2022-07-12T10:47:57;23.50;99.90
9658;DHT22;4867;48.112;11.622;2022-07-12T10:50:50;23.70;99.90
9658;DHT22;4867;48.112;11.622;2022-07-12T10:56:17;23.30;99.90
9658;DHT22;4867;48.112;11.622;2022-07-12T10:58:57;22.90;99.90
9658;DHT22;4867;48.112;11.622;2022-07-12T11:01:26;22.80;99.90
9658;DHT22;4867;48.112;11.622;2022-07-12T11:06:26;22.80;99.90
9658;DHT22;4867;48.112;11.622;2022-07-12T11:08:57;22.90;99.90
9658;DHT22;4867;48.112;11.622;2022-07-12T11:11:46;23.00;99.90
9658;DHT22;4867;48.112;11.622;2022-07-12T11:14:27;23.20;99.90
9658;DHT22;4867;48.112;11.622;2022-07-12T11:16:56;23.40;99.90
9658;DHT22;4867;48.112;11.622;2022-07-12T11:19:26;23.10;99.90
9658;DHT22;4867;48.112;11.622;2022-07-12T11:21:54;23.40;99.90
9658;DHT22;4867;48.112;11.622;2022-07-12T11:24:23;23.50;99.90
9658;DHT22;4867;48.112;11.622;2022-07-12T11:26:51;23.80;99.90
9658;DHT22;4867;48.112;11.622;2022-07-12T11:29:19;24.00;99.90
9658;DHT22;4867;48.112;11.622;2022-07-12T11:31:46;23.90;99.90
9658;DHT22;4867;48.112;11.622;2022-07-12T11:34:24;23.50;99.90
9658;DHT22;4867;48.112;11.622;2022-07-12T11:36:56;23.40;99.90
9658;DHT22;4867;48.112;11.622;2022-07-12T11:39:40;23.00;99.90
9658;DHT22;4867;48.112;11.622;2022-07-12T11:42:08;23.00;99.90
9658;DHT22;4867;48.112;11.622;2022-07-12T11:44:46;23.10;99.90
9658;DHT22;4867;48.112;11.622;2022-07-12T11:47:15;23.20;99.90
9658;DHT22;4867;48.112;11.622;2022-07-12T11:49:47;23.10;99.90
9658;DHT22;4867;48.112;11.622;2022-07-12T11:52:18;22.90;99.90
9658;DHT22;4867;48.112;11.622;2022-07-12T11:54:49;22.80;99.90
9658;DHT22;4867;48.112;11.622;2022-07-12T11:57:19;22.80;99.90
9658;DHT22;4867;48.112;11.622;2022-07-12T11:59:47;23.10;99.90
9658;DHT22;4867;48.112;11.622;2022-07-12T12:02:16;23.70;99.90
9658;DHT22;4867;48.112;11.622;2022-07-12T12:04:53;23.80;99.90
9658;DHT22;4867;48.112;11.622;2022-07-12T12:07:23;24.30;99.90
9658;DHT22;4867;48.112;11.622;2022-07-12T12:10:12;24.50;99.90
9658;DHT22;4867;48.112;11.622;2022-07-12T12:12:50;24.80;99.90
9658;DHT22;4867;48.112;11.622;2022-07-12T12:15:23;25.10;99.90
9658;DHT22;4867;48.112;11.622;2022-07-12T12:18:02;25.20;99.90
9658;DHT22;4867;48.112;11.622;2022-07-12T12:20:32;24.90;99.90
9658;DHT22;4867;48.112;11.622;2022-07-12T12:23:00;24.80;99.90
9658;DHT22;4867;48.112;11.622;2022-07-12T12:25:30;25.00;99.90
9658;DHT22;4867;48.112;11.622;2022-07-12T12:28:00;25.20;99.90
9658;DHT22;4867;48.112;11.622;2022-07-12T12:30:49;25.50;99.90
9658;DHT22;4867;48.112;11.622;2022-07-12T12:36:12;25.20;99.90
9658;DHT22;4867;48.112;11.622;2022-07-12T12:38:39;25.60;99.90
9658;DHT22;4867;48.112;11.622;2022-07-12T12:41:06;25.80;99.90
9658;DHT22;4867;48.112;11.622;2022-07-12T12:43:34;25.60;98.70
9658;DHT22;4867;48.112;11.622;2022-07-12T12:46:00;25.40;98.60
9658;DHT22;4867;48.112;11.622;2022-07-12T12:48:32;25.00;98.90
9658;DHT22;4867;48.112;11.622;2022-07-12T12:53:35;24.80;99.20
9658;DHT22;4867;48.112;11.622;2022-07-12T12:56:08;25.00;99.50
9658;DHT22;4867;48.112;11.622;2022-07-12T12:58:36;25.30;98.80
9658;DHT22;4867;48.112;11.622;2022-07-12T13:01:04;25.40;97.90
9658;DHT22;4867;48.112;11.622;2022-07-12T13:03:32;25.50;98.00
9658;DHT22;4867;48.112;11.622;2022-07-12T13:05:59;25.60;97.40
9658;DHT22;4867;48.112;11.622;2022-07-12T13:08:27;25.80;98.00
9658;DHT22;4867;48.112;11.622;2022-07-12T13:10:54;26.00;98.10
9658;DHT22;4867;48.112;11.622;2022-07-12T13:13:40;26.20;97.60
9658;DHT22;4867;48.112;11.622;2022-07-12T13:16:07;26.40;97.50
9658;DHT22;4867;48.112;11.622;2022-07-12T13:18:34;26.40;97.40
9658;DHT22;4867;48.112;11.622;2022-07-12T13:21:01;26.10;96.70
9658;DHT22;4867;48.112;11.622;2022-07-12T13:23:28;26.10;97.70
9658;DHT22;4867;48.112;11.622;2022-07-12T13:25:55;26.40;98.00
9658;DHT22;4867;48.112;11.622;2022-07-12T13:28:22;26.70;98.30
9658;DHT22;4867;48.112;11.622;2022-07-12T13:30:50;26.80;97.20
9658;DHT22;4867;48.112;11.622;2022-07-12T13:33:19;26.00;95.30
9658;DHT22;4867;48.112;11.622;2022-07-12T13:35:46;25.60;96.50
9658;DHT22;4867;48.112;11.622;2022-07-12T13:38:13;25.30;96.50
9658;DHT22;4867;48.112;11.622;2022-07-12T13:40:40;25.20;96.20
9658;DHT22;4867;48.112;11.622;2022-07-12T13:43:07;25.10;95.90
9658;DHT22;4867;48.112;11.622;2022-07-12T13:45:33;25.40;96.70
9658;DHT22;4867;48.112;11.622;2022-07-12T13:48:01;25.80;96.80
9658;DHT22;4867;48.112;11.622;2022-07-12T13:50:29;26.10;96.10
9658;DHT22;4867;48.112;11.622;2022-07-12T13:52:58;26.20;95.70
9658;DHT22;4867;48.112;11.622;2022-07-12T13:55:27;26.50;96.10
9658;DHT22;4867;48.112;11.622;2022-07-12T13:57:55;26.50;94.60
9658;DHT22;4867;48.112;11.622;2022-07-12T14:00:22;26.40;94.70
9658;DHT22;4867;48.112;11.622;2022-07-12T14:02:49;26.30;94.80
9658;DHT22;4867;48.112;11.622;2022-07-12T14:05:21;25.80;94.40
9658;DHT22;4867;48.112;11.622;2022-07-12T14:07:48;25.60;94.90
9658;DHT22;4867;48.112;11.622;2022-07-12T14:10:17;25.50;95.20
9658;DHT22;4867;48.112;11.622;2022-07-12T14:12:43;25.70;95.50
9658;DHT22;4867;48.112;11.622;2022-07-12T14:15:11;26.00;95.00
9658;DHT22;4867;48.112;11.622;2022-07-12T14:17:44;26.10;93.80
9658;DHT22;4867;48.112;11.622;2022-07-12T14:20:12;26.10;93.80
9658;DHT22;4867;48.112;11.622;2022-07-12T14:22:40;25.80;93.80
9658;DHT22;4867;48.112;11.622;2022-07-12T14:25:08;25.50;93.70
9658;DHT22;4867;48.112;11.622;2022-07-12T14:27:37;25.50;93.70
9658;DHT22;4867;48.112;11.622;2022-07-12T14:30:05;25.50;94.30
9658;DHT22;4867;48.112;11.622;2022-07-12T14:32:36;25.50;94.20
9658;DHT22;4867;48.112;11.622;2022-07-12T14:35:04;25.60;93.90
9658;DHT22;4867;48.112;11.622;2022-07-12T14:37:33;25.50;93.80
9658;DHT22;4867;48.112;11.622;2022-07-12T14:40:01;25.70;94.40
9658;DHT22;4867;48.112;11.622;2022-07-12T14:42:28;25.50;93.00
9658;DHT22;4867;48.112;11.622;2022-07-12T14:44:55;25.50;94.10
9658;DHT22;4867;48.112;11.622;2022-07-12T14:47:22;25.40;93.90
9658;DHT22;4867;48.112;11.622;2022-07-12T14:49:50;25.20;92.70
9658;DHT22;4867;48.112;11.622;2022-07-12T14:52:17;25.00;93.70
9658;DHT22;4867;48.112;11.622;2022-07-12T14:54:43;25.00;93.40
9658;DHT22;4867;48.112;11.622;2022-07-12T14:57:11;25.20;92.70
9658;DHT22;4867;48.112;11.622;2022-07-12T14:59:38;25.20;93.60
9658;DHT22;4867;48.112;11.622;2022-07-12T15:02:05;25.20;93.60
9658;DHT22;4867;48.112;11.622;2022-07-12T15:04:32;25.10;92.70
9658;DHT22;4867;48.112;11.622;2022-07-12T15:06:59;25.10;92.50
9658;DHT22;4867;48.112;11.622;2022-07-12T15:09:26;25.30;92.80
9658;DHT22;4867;48.112;11.622;2022-07-12T15:11:54;25.60;92.50
9658;DHT22;4867;48.112;11.622;2022-07-12T15:14:21;25.80;93.60
9658;DHT22;4867;48.112;11.622;2022-07-12T15:16:48;26.00;93.70
9658;DHT22;4867;48.112;11.622;2022-07-12T15:19:15;26.20;93.50
9658;DHT22;4867;48.112;11.622;2022-07-12T15:21:42;26.20;92.40
9658;DHT22;4867;48.112;11.622;2022-07-12T15:24:09;26.10;93.30
9658;DHT22;4867;48.112;11.622;2022-07-12T15:26:36;25.90;92.20
9658;DHT22;4867;48.112;11.622;2022-07-12T15:29:04;25.80;92.60
9658;DHT22;4867;48.112;11.622;2022-07-12T15:31:31;25.90;92.50
9658;DHT22;4867;48.112;11.622;2022-07-12T15:34:05;25.90;92.20
9658;DHT22;4867;48.112;11.622;2022-07-12T15:36:32;25.80;91.40
9658;DHT22;4867;48.112;11.622;2022-07-12T15:39:00;25.80;92.10
9658;DHT22;4867;48.112;11.622;2022-07-12T15:41:27;25.90;92.10
9658;DHT22;4867;48.112;11.622;2022-07-12T15:43:54;25.90;91.90
9658;DHT22;4867;48.112;11.622;2022-07-12T15:46:21;25.90;92.90
9658;DHT22;4867;48.112;11.622;2022-07-12T15:48:48;26.20;92.80
9658;DHT22;4867;48.112;11.622;2022-07-12T15:51:15;26.40;91.80
9658;DHT22;4867;48.112;11.622;2022-07-12T15:53:42;26.30;91.90
9658;DHT22;4867;48.112;11.622;2022-07-12T15:56:09;26.30;91.10
9658;DHT22;4867;48.112;11.622;2022-07-12T15:58:40;26.90;92.10
9658;DHT22;4867;48.112;11.622;2022-07-12T16:01:09;27.40;91.60
9658;DHT22;4867;48.112;11.622;2022-07-12T16:03:36;28.00;92.20
9658;DHT22;4867;48.112;11.622;2022-07-12T16:06:04;28.10;91.60
9658;DHT22;4867;48.112;11.622;2022-07-12T16:08:31;28.80;90.70
9658;DHT22;4867;48.112;11.622;2022-07-12T16:11:00;29.40;90.30
9658;DHT22;4867;48.112;11.622;2022-07-12T16:13:27;30.00;90.00
9658;DHT22;4867;48.112;11.622;2022-07-12T16:16:00;30.10;85.50
9658;DHT22;4867;48.112;11.622;2022-07-12T16:18:27;30.20;86.20